sensor_id;sensor_type;location;lat;lon;timestamp;P1;durP1;ratioP1;P2;durP2;ratioP2
13435;SDS011;6790;49.520;8.504;2023-05-10T00:00:04;0.20;;;0.20;;
13435;SDS011;6790;49.520;8.504;2023-05-10T00:02:31;0.10;;;0.10;;
13435;SDS011;6790;49.520;8.504;2023-05-10T00:04:56;0.20;;;0.20;;
13435;SDS011;6790;49.520;8.504;2023-05-10T00:07:22;0.20;;;0.20;;
13435;SDS011;6790;49.520;8.504;2023-05-10T00:09:48;0.20;;;0.20;;
13435;SDS011;6790;49.520;8.504;2023-05-10T00:12:13;0.20;;;0.20;;
13435;SDS011;6790;49.520;8.504;2023-05-10T00:14:39;0.30;;;0.30;;
13435;SDS011;6790;49.520;8.504;2023-05-10T00:17:05;0.20;;;0.20;;
13435;SDS011;6790;49.520;8.504;2023-05-10T00:19:30;0.20;;;0.20;;
13435;SDS011;6790;49.520;8.504;2023-05-10T00:21:57;0.20;;;0.20;;
13435;SDS011;6790;49.520;8.504;2023-05-10T00:24:22;0.30;;;0.30;;
13435;SDS011;6790;49.520;8.504;2023-05-10T00:26:48;0.23;;;0.23;;
13435;SDS011;6790;49.520;8.504;2023-05-10T00:29:13;0.10;;;0.10;;
13435;SDS011;6790;49.520;8.504;2023-05-10T00:31:39;0.20;;;0.20;;
13435;SDS011;6790;49.520;8.504;2023-05-10T00:34:05;0.30;;;0.30;;
13435;SDS011;6790;49.520;8.504;2023-05-10T00:36:31;0.30;;;0.30;;
13435;SDS011;6790;49.520;8.504;2023-05-10T00:38:56;0.20;;;0.20;;
13435;SDS011;6790;49.520;8.504;2023-05-10T00:41:22;0.20;;;0.20;;
13435;SDS011;6790;49.520;8.504;2023-05-10T00:43:48;0.10;;;0.10;;
13435;SDS011;6790;49.520;8.504;2023-05-10T00:46:14;0.20;;;0.20;;
13435;SDS011;6790;49.520;8.504;2023-05-10T00:48:40;0.13;;;0.13;;
13435;SDS011;6790;49.520;8.504;2023-05-10T00:51:07;0.10;;;0.10;;
13435;SDS011;6790;49.520;8.504;2023-05-10T00:53:33;0.20;;;0.20;;
13435;SDS011;6790;49.520;8.504;2023-05-10T00:56:00;0.17;;;0.17;;
13435;SDS011;6790;49.520;8.504;2023-05-10T00:58:27;0.30;;;0.30;;
13435;SDS011;6790;49.520;8.504;2023-05-10T01:00:54;0.13;;;0.13;;
13435;SDS011;6790;49.520;8.504;2023-05-10T01:03:21;0.20;;;0.20;;
13435;SDS011;6790;49.520;8.504;2023-05-10T01:05:47;0.13;;;0.13;;
13435;SDS011;6790;49.520;8.504;2023-05-10T01:08:13;0.20;;;0.20;;
13435;SDS011;6790;49.520;8.504;2023-05-10T01:10:39;0.20;;;0.20;;
13435;SDS011;6790;49.520;8.504;2023-05-10T01:13:05;0.30;;;0.30;;
13435;SDS011;6790;49.520;8.504;2023-05-10T01:15:31;0.13;;;0.13;;
13435;SDS011;6790;49.520;8.504;2023-05-10T01:17:57;0.20;;;0.20;;
13435;SDS011;6790;49.520;8.504;2023-05-10T01:20:24;0.30;;;0.30;;
13435;SDS011;6790;49.520;8.504;2023-05-10T01:25:58;0.20;;;0.20;;
13435;SDS011;6790;49.520;8.504;2023-05-10T01:29:34;0.10;;;0.10;;
13435;SDS011;6790;49.520;8.504;2023-05-10T01:32:34;0.20;;;0.20;;
13435;SDS011;6790;49.520;8.504;2023-05-10T01:35:46;0.20;;;0.20;;
13435;SDS011;6790;49.520;8.504;2023-05-10T01:47:37;0.20;;;0.20;;
13435;SDS011;6790;49.520;8.504;2023-05-10T01:50:15;0.30;;;0.30;;
13435;SDS011;6790;49.520;8.504;2023-05-10T01:52:50;0.10;;;0.10;;
13435;SDS011;6790;49.520;8.504;2023-05-10T01:55:20;0.30;;;0.30;;
13435;SDS011;6790;49.520;8.504;2023-05-10T01:57:51;0.10;;;0.10;;
13435;SDS011;6790;49.520;8.504;2023-05-10T02:00:31;0.30;;;0.30;;
13435;SDS011;6790;49.520;8.504;2023-05-10T02:02:59;0.20;;;0.20;;
13435;SDS011;6790;49.520;8.504;2023-05-10T02:05:29;0.10;;;0.10;;
13435;SDS011;6790;49.520;8.504;2023-05-10T02:07:57;0.20;;;0.20;;
13435;SDS011;6790;49.520;8.504;2023-05-10T02:10:26;0.10;;;0.10;;
13435;SDS011;6790;49.520;8.504;2023-05-10T02:12:53;0.23;;;0.23;;
13435;SDS011;6790;49.520;8.504;2023-05-10T02:15:22;0.30;;;0.30;;
13435;SDS011;6790;49.520;8.504;2023-05-10T02:17:49;0.30;;;0.30;;
13435;SDS011;6790;49.520;8.504;2023-05-10T02:20:16;0.20;;;0.20;;
13435;SDS011;6790;49.520;8.504;2023-05-10T02:22:44;0.30;;;0.30;;
13435;SDS011;6790;49.520;8.504;2023-05-10T02:25:12;0.30;;;0.30;;
13435;SDS011;6790;49.520;8.504;2023-05-10T02:27:39;0.30;;;0.30;;
13435;SDS011;6790;49.520;8.504;2023-05-10T02:30:07;0.30;;;0.30;;
13435;SDS011;6790;49.520;8.504;2023-05-10T02:32:35;0.20;;;0.20;;
13435;SDS011;6790;49.520;8.504;2023-05-10T02:35:02;0.20;;;0.20;;
13435;SDS011;6790;49.520;8.504;2023-05-10T02:37:28;0.20;;;0.20;;
13435;SDS011;6790;49.520;8.504;2023-05-10T02:39:55;0.30;;;0.30;;
13435;SDS011;6790;49.520;8.504;2023-05-10T02:42:27;0.13;;;0.13;;
13435;SDS011;6790;49.520;8.504;2023-05-10T02:44:56;0.10;;;0.10;;
13435;SDS011;6790;49.520;8.504;2023-05-10T02:47:27;0.10;;;0.10;;
13435;SDS011;6790;49.520;8.504;2023-05-10T02:49:54;0.20;;;0.20;;
13435;SDS011;6790;49.520;8.504;2023-05-10T02:52:21;0.30;;;0.30;;
13435;SDS011;6790;49.520;8.504;2023-05-10T02:54:55;0.17;;;0.17;;
13435;SDS011;6790;49.520;8.504;2023-05-10T02:57:27;0.20;;;0.20;;
13435;SDS011;6790;49.520;8.504;2023-05-10T02:59:57;0.20;;;0.20;;
13435;SDS011;6790;49.520;8.504;2023-05-10T03:02:23;0.30;;;0.30;;
13435;SDS011;6790;49.520;8.504;2023-05-10T03:04:49;0.30;;;0.30;;
13435;SDS011;6790;49.520;8.504;2023-05-10T03:07:14;0.10;;;0.10;;
13435;SDS011;6790;49.520;8.504;2023-05-10T03:09:41;0.30;;;0.30;;
13435;SDS011;6790;49.520;8.504;2023-05-10T03:12:08;0.30;;;0.30;;
13435;SDS011;6790;49.520;8.504;2023-05-10T03:17:46;0.17;;;0.17;;
13435;SDS011;6790;49.520;8.504;2023-05-10T03:20:35;0.20;;;0.20;;
13435;SDS011;6790;49.520;8.504;2023-05-10T03:25:55;0.10;;;0.10;;
13435;SDS011;6790;49.520;8.504;2023-05-10T03:28:21;0.37;;;0.37;;
13435;SDS011;6790;49.520;8.504;2023-05-10T03:30:52;0.20;;;0.20;;
13435;SDS011;6790;49.520;8.504;2023-05-10T03:33:19;0.30;;;0.30;;
13435;SDS011;6790;49.520;8.504;2023-05-10T03:35:45;0.30;;;0.30;;
13435;SDS011;6790;49.520;8.504;2023-05-10T03:38:11;0.30;;;0.30;;
13435;SDS011;6790;49.520;8.504;2023-05-10T03:40:38;0.27;;;0.27;;
13435;SDS011;6790;49.520;8.504;2023-05-10T03:43:04;0.30;;;0.30;;
13435;SDS011;6790;49.520;8.504;2023-05-10T03:45:30;0.20;;;0.20;;
13435;SDS011;6790;49.520;8.504;2023-05-10T03:47:56;0.30;;;0.30;;
13435;SDS011;6790;49.520;8.504;2023-05-10T03:50:23;0.10;;;0.10;;
13435;SDS011;6790;49.520;8.504;2023-05-10T03:52:49;0.30;;;0.30;;
13435;SDS011;6790;49.520;8.504;2023-05-10T03:55:15;22.17;;;2.40;;
13435;SDS011;6790;49.520;8.504;2023-05-10T03:57:41;0.20;;;0.20;;
13435;SDS011;6790;49.520;8.504;2023-05-10T04:00:07;0.10;;;0.10;;
13435;SDS011;6790;49.520;8.504;2023-05-10T04:02:34;0.20;;;0.20;;
13435;SDS011;6790;49.520;8.504;2023-05-10T04:05:00;0.27;;;0.27;;
13435;SDS011;6790;49.520;8.504;2023-05-10T04:07:26;0.20;;;0.20;;
13435;SDS011;6790;49.520;8.504;2023-05-10T04:09:51;0.20;;;0.20;;
13435;SDS011;6790;49.520;8.504;2023-05-10T04:12:17;0.30;;;0.30;;
13435;SDS011;6790;49.520;8.504;2023-05-10T04:14:43;0.20;;;0.20;;
13435;SDS011;6790;49.520;8.504;2023-05-10T04:17:08;0.30;;;0.30;;
13435;SDS011;6790;49.520;8.504;2023-05-10T04:19:34;0.30;;;0.30;;
13435;SDS011;6790;49.520;8.504;2023-05-10T04:22:00;0.20;;;0.20;;
13435;SDS011;6790;49.520;8.504;2023-05-10T04:24:27;0.17;;;0.17;;
13435;SDS011;6790;49.520;8.504;2023-05-10T04:26:53;0.20;;;0.20;;
13435;SDS011;6790;49.520;8.504;2023-05-10T04:29:19;0.10;;;0.10;;
13435;SDS011;6790;49.520;8.504;2023-05-10T04:31:45;0.30;;;0.30;;
13435;SDS011;6790;49.520;8.504;2023-05-10T04:34:11;0.20;;;0.20;;
13435;SDS011;6790;49.520;8.504;2023-05-10T04:36:37;0.20;;;0.20;;
13435;SDS011;6790;49.520;8.504;2023-05-10T04:39:03;0.17;;;0.17;;
13435;SDS011;6790;49.520;8.504;2023-05-10T04:41:29;0.20;;;0.20;;
13435;SDS011;6790;49.520;8.504;2023-05-10T04:43:55;0.30;;;0.30;;
13435;SDS011;6790;49.520;8.504;2023-05-10T04:46:20;0.20;;;0.20;;
13435;SDS011;6790;49.520;8.504;2023-05-10T04:48:46;0.30;;;0.30;;
13435;SDS011;6790;49.520;8.504;2023-05-10T04:51:12;0.20;;;0.20;;
13435;SDS011;6790;49.520;8.504;2023-05-10T04:53:38;0.20;;;0.20;;
13435;SDS011;6790;49.520;8.504;2023-05-10T04:56:03;0.30;;;0.30;;
13435;SDS011;6790;49.520;8.504;2023-05-10T04:58:29;0.30;;;0.30;;
13435;SDS011;6790;49.520;8.504;2023-05-10T05:00:55;0.10;;;0.10;;
13435;SDS011;6790;49.520;8.504;2023-05-10T05:03:21;0.20;;;0.20;;
13435;SDS011;6790;49.520;8.504;2023-05-10T05:05:47;0.20;;;0.20;;
13435;SDS011;6790;49.520;8.504;2023-05-10T05:08:13;0.40;;;0.40;;
13435;SDS011;6790;49.520;8.504;2023-05-10T05:10:38;0.30;;;0.30;;
13435;SDS011;6790;49.520;8.504;2023-05-10T05:13:04;0.50;;;0.50;;
13435;SDS011;6790;49.520;8.504;2023-05-10T05:15:30;0.20;;;0.20;;
13435;SDS011;6790;49.520;8.504;2023-05-10T05:17:56;0.30;;;0.30;;
13435;SDS011;6790;49.520;8.504;2023-05-10T05:20:21;0.40;;;0.40;;
13435;SDS011;6790;49.520;8.504;2023-05-10T05:22:47;0.20;;;0.20;;
13435;SDS011;6790;49.520;8.504;2023-05-10T05:25:13;0.30;;;0.30;;
13435;SDS011;6790;49.520;8.504;2023-05-10T05:27:40;0.30;;;0.30;;
13435;SDS011;6790;49.520;8.504;2023-05-10T05:30:05;0.30;;;0.30;;
13435;SDS011;6790;49.520;8.504;2023-05-10T05:32:32;0.13;;;0.13;;
13435;SDS011;6790;49.520;8.504;2023-05-10T05:34:58;0.20;;;0.20;;
13435;SDS011;6790;49.520;8.504;2023-05-10T05:37:24;0.30;;;0.30;;
13435;SDS011;6790;49.520;8.504;2023-05-10T05:39:50;0.13;;;0.13;;
13435;SDS011;6790;49.520;8.504;2023-05-10T05:42:16;0.30;;;0.30;;
13435;SDS011;6790;49.520;8.504;2023-05-10T05:44:43;0.30;;;0.30;;
13435;SDS011;6790;49.520;8.504;2023-05-10T05:47:10;0.20;;;0.20;;
13435;SDS011;6790;49.520;8.504;2023-05-10T05:49:36;0.30;;;0.30;;
13435;SDS011;6790;49.520;8.504;2023-05-10T05:52:02;0.20;;;0.20;;
13435;SDS011;6790;49.520;8.504;2023-05-10T05:54:29;0.23;;;0.23;;
13435;SDS011;6790;49.520;8.504;2023-05-10T05:56:56;0.10;;;0.10;;
13435;SDS011;6790;49.520;8.504;2023-05-10T05:59:23;0.30;;;0.30;;
13435;SDS011;6790;49.520;8.504;2023-05-10T06:01:54;0.27;;;0.27;;
13435;SDS011;6790;49.520;8.504;2023-05-10T06:04:20;0.30;;;0.30;;
13435;SDS011;6790;49.520;8.504;2023-05-10T06:06:45;0.10;;;0.10;;
13435;SDS011;6790;49.520;8.504;2023-05-10T06:09:11;0.30;;;0.30;;
13435;SDS011;6790;49.520;8.504;2023-05-10T06:11:37;0.17;;;0.17;;
13435;SDS011;6790;49.520;8.504;2023-05-10T06:14:03;0.20;;;0.20;;
13435;SDS011;6790;49.520;8.504;2023-05-10T06:16:31;0.30;;;0.30;;
13435;SDS011;6790;49.520;8.504;2023-05-10T06:18:57;0.17;;;0.17;;
13435;SDS011;6790;49.520;8.504;2023-05-10T06:21:23;0.10;;;0.10;;
13435;SDS011;6790;49.520;8.504;2023-05-10T06:23:48;0.20;;;0.20;;
13435;SDS011;6790;49.520;8.504;2023-05-10T06:26:14;0.20;;;0.20;;
13435;SDS011;6790;49.520;8.504;2023-05-10T06:28:40;0.30;;;0.30;;
13435;SDS011;6790;49.520;8.504;2023-05-10T06:31:06;0.20;;;0.20;;
13435;SDS011;6790;49.520;8.504;2023-05-10T06:33:32;0.20;;;0.20;;
13435;SDS011;6790;49.520;8.504;2023-05-10T06:35:58;0.13;;;0.13;;
13435;SDS011;6790;49.520;8.504;2023-05-10T06:38:24;0.40;;;0.40;;
13435;SDS011;6790;49.520;8.504;2023-05-10T06:40:50;0.30;;;0.30;;
13435;SDS011;6790;49.520;8.504;2023-05-10T06:43:16;0.30;;;0.30;;
13435;SDS011;6790;49.520;8.504;2023-05-10T06:45:42;2.67;;;1.63;;
13435;SDS011;6790;49.520;8.504;2023-05-10T06:48:07;0.20;;;0.20;;
13435;SDS011;6790;49.520;8.504;2023-05-10T06:50:33;0.20;;;0.20;;
13435;SDS011;6790;49.520;8.504;2023-05-10T06:52:59;0.20;;;0.20;;
13435;SDS011;6790;49.520;8.504;2023-05-10T06:55:26;0.20;;;0.20;;
13435;SDS011;6790;49.520;8.504;2023-05-10T06:57:52;0.30;;;0.30;;
13435;SDS011;6790;49.520;8.504;2023-05-10T07:00:18;0.13;;;0.13;;
13435;SDS011;6790;49.520;8.504;2023-05-10T07:02:45;0.30;;;0.30;;
13435;SDS011;6790;49.520;8.504;2023-05-10T07:05:11;0.20;;;0.20;;
13435;SDS011;6790;49.520;8.504;2023-05-10T07:07:37;0.20;;;0.20;;
13435;SDS011;6790;49.520;8.504;2023-05-10T07:10:03;0.20;;;0.20;;
13435;SDS011;6790;49.520;8.504;2023-05-10T07:12:29;0.30;;;0.30;;
13435;SDS011;6790;49.520;8.504;2023-05-10T07:14:55;0.10;;;0.10;;
13435;SDS011;6790;49.520;8.504;2023-05-10T07:17:20;0.10;;;0.10;;
13435;SDS011;6790;49.520;8.504;2023-05-10T07:19:46;0.30;;;0.30;;
13435;SDS011;6790;49.520;8.504;2023-05-10T07:22:12;0.53;;;0.53;;
13435;SDS011;6790;49.520;8.504;2023-05-10T07:24:38;0.23;;;0.23;;
13435;SDS011;6790;49.520;8.504;2023-05-10T07:27:03;0.27;;;0.27;;
13435;SDS011;6790;49.520;8.504;2023-05-10T07:29:29;0.20;;;0.20;;
13435;SDS011;6790;49.520;8.504;2023-05-10T07:31:55;0.40;;;0.40;;
13435;SDS011;6790;49.520;8.504;2023-05-10T07:34:21;0.30;;;0.30;;
13435;SDS011;6790;49.520;8.504;2023-05-10T07:36:47;0.30;;;0.30;;
13435;SDS011;6790;49.520;8.504;2023-05-10T07:39:12;0.20;;;0.20;;
13435;SDS011;6790;49.520;8.504;2023-05-10T07:41:38;0.20;;;0.20;;
13435;SDS011;6790;49.520;8.504;2023-05-10T07:44:04;0.33;;;0.33;;
13435;SDS011;6790;49.520;8.504;2023-05-10T07:46:31;0.30;;;0.30;;
13435;SDS011;6790;49.520;8.504;2023-05-10T07:48:57;0.20;;;0.20;;
13435;SDS011;6790;49.520;8.504;2023-05-10T07:51:22;0.40;;;0.40;;
13435;SDS011;6790;49.520;8.504;2023-05-10T07:53:48;0.20;;;0.20;;
13435;SDS011;6790;49.520;8.504;2023-05-10T07:58:54;0.20;;;0.20;;
13435;SDS011;6790;49.520;8.504;2023-05-10T08:01:21;0.30;;;0.30;;
13435;SDS011;6790;49.520;8.504;2023-05-10T08:03:48;0.30;;;0.30;;
13435;SDS011;6790;49.520;8.504;2023-05-10T08:06:16;0.20;;;0.20;;
13435;SDS011;6790;49.520;8.504;2023-05-10T08:08:43;0.27;;;0.27;;
13435;SDS011;6790;49.520;8.504;2023-05-10T08:11:10;0.20;;;0.20;;
13435;SDS011;6790;49.520;8.504;2023-05-10T08:13:36;0.30;;;0.30;;
13435;SDS011;6790;49.520;8.504;2023-05-10T08:16:01;0.20;;;0.20;;
13435;SDS011;6790;49.520;8.504;2023-05-10T08:18:27;0.20;;;0.20;;
13435;SDS011;6790;49.520;8.504;2023-05-10T08:20:53;0.20;;;0.20;;
13435;SDS011;6790;49.520;8.504;2023-05-10T08:23:19;0.30;;;0.30;;
13435;SDS011;6790;49.520;8.504;2023-05-10T08:25:45;0.23;;;0.23;;
13435;SDS011;6790;49.520;8.504;2023-05-10T08:28:11;0.30;;;0.30;;
13435;SDS011;6790;49.520;8.504;2023-05-10T08:30:36;0.27;;;0.27;;
13435;SDS011;6790;49.520;8.504;2023-05-10T08:33:02;0.27;;;0.27;;
13435;SDS011;6790;49.520;8.504;2023-05-10T08:35:28;0.30;;;0.30;;
13435;SDS011;6790;49.520;8.504;2023-05-10T08:37:53;0.20;;;0.20;;
13435;SDS011;6790;49.520;8.504;2023-05-10T08:40:19;0.30;;;0.30;;
13435;SDS011;6790;49.520;8.504;2023-05-10T08:42:49;0.20;;;0.20;;
13435;SDS011;6790;49.520;8.504;2023-05-10T08:45:24;0.20;;;0.20;;
13435;SDS011;6790;49.520;8.504;2023-05-10T08:47:50;0.20;;;0.20;;
13435;SDS011;6790;49.520;8.504;2023-05-10T08:50:17;0.23;;;0.23;;
13435;SDS011;6790;49.520;8.504;2023-05-10T08:52:46;0.20;;;0.20;;
13435;SDS011;6790;49.520;8.504;2023-05-10T08:55:16;0.30;;;0.30;;
13435;SDS011;6790;49.520;8.504;2023-05-10T08:57:42;0.20;;;0.20;;
13435;SDS011;6790;49.520;8.504;2023-05-10T09:00:08;0.30;;;0.30;;
13435;SDS011;6790;49.520;8.504;2023-05-10T09:02:35;2.10;;;1.90;;
13435;SDS011;6790;49.520;8.504;2023-05-10T09:05:02;2.30;;;2.10;;
13435;SDS011;6790;49.520;8.504;2023-05-10T09:07:29;2.10;;;1.90;;
13435;SDS011;6790;49.520;8.504;2023-05-10T09:09:55;3.23;;;2.10;;
13435;SDS011;6790;49.520;8.504;2023-05-10T09:12:22;5.87;;;2.27;;
13435;SDS011;6790;49.520;8.504;2023-05-10T09:14:48;3.63;;;2.03;;
13435;SDS011;6790;49.520;8.504;2023-05-10T09:17:17;3.23;;;2.47;;
13435;SDS011;6790;49.520;8.504;2023-05-10T09:19:44;3.43;;;2.37;;
13435;SDS011;6790;49.520;8.504;2023-05-10T09:22:10;2.60;;;2.33;;
13435;SDS011;6790;49.520;8.504;2023-05-10T09:24:36;3.60;;;2.30;;
13435;SDS011;6790;49.520;8.504;2023-05-10T09:27:07;3.20;;;2.17;;
13435;SDS011;6790;49.520;8.504;2023-05-10T09:29:39;2.93;;;1.83;;
13435;SDS011;6790;49.520;8.504;2023-05-10T09:32:07;2.30;;;2.00;;
13435;SDS011;6790;49.520;8.504;2023-05-10T09:34:32;2.10;;;2.00;;
13435;SDS011;6790;49.520;8.504;2023-05-10T09:37:00;2.83;;;1.80;;
13435;SDS011;6790;49.520;8.504;2023-05-10T09:42:03;3.67;;;2.20;;
13435;SDS011;6790;49.520;8.504;2023-05-10T09:44:33;6.33;;;2.27;;
13435;SDS011;6790;49.520;8.504;2023-05-10T09:47:00;2.87;;;2.17;;
13435;SDS011;6790;49.520;8.504;2023-05-10T09:49:27;2.30;;;2.10;;
13435;SDS011;6790;49.520;8.504;2023-05-10T09:52:03;3.73;;;2.37;;
13435;SDS011;6790;49.520;8.504;2023-05-10T09:54:31;2.97;;;2.10;;
13435;SDS011;6790;49.520;8.504;2023-05-10T09:56:58;1.70;;;1.60;;
13435;SDS011;6790;49.520;8.504;2023-05-10T09:59:26;2.40;;;1.73;;
13435;SDS011;6790;49.520;8.504;2023-05-10T10:01:59;2.80;;;2.10;;
13435;SDS011;6790;49.520;8.504;2023-05-10T10:04:25;2.30;;;2.10;;
13435;SDS011;6790;49.520;8.504;2023-05-10T10:06:58;3.67;;;2.20;;
13435;SDS011;6790;49.520;8.504;2023-05-10T10:09:26;6.30;;;2.50;;
13435;SDS011;6790;49.520;8.504;2023-05-10T10:11:53;5.27;;;2.90;;
13435;SDS011;6790;49.520;8.504;2023-05-10T10:14:19;3.87;;;2.80;;
13435;SDS011;6790;49.520;8.504;2023-05-10T10:16:47;3.17;;;2.27;;
13435;SDS011;6790;49.520;8.504;2023-05-10T10:19:15;3.40;;;3.10;;
13435;SDS011;6790;49.520;8.504;2023-05-10T10:21:40;8.20;;;2.83;;
13435;SDS011;6790;49.520;8.504;2023-05-10T10:24:06;2.80;;;2.50;;
13435;SDS011;6790;49.520;8.504;2023-05-10T10:26:33;3.10;;;2.80;;
13435;SDS011;6790;49.520;8.504;2023-05-10T10:29:08;5.57;;;3.20;;
13435;SDS011;6790;49.520;8.504;2023-05-10T10:34:34;2.90;;;2.70;;
13435;SDS011;6790;49.520;8.504;2023-05-10T10:37:04;3.90;;;2.90;;
13435;SDS011;6790;49.520;8.504;2023-05-10T10:39:31;2.93;;;2.63;;
13435;SDS011;6790;49.520;8.504;2023-05-10T10:41:58;3.13;;;2.90;;
13435;SDS011;6790;49.520;8.504;2023-05-10T10:49:51;13.83;;;11.07;;
13435;SDS011;6790;49.520;8.504;2023-05-10T10:55:14;4.80;;;2.73;;
13435;SDS011;6790;49.520;8.504;2023-05-10T11:03:04;1.87;;;1.57;;
13435;SDS011;6790;49.520;8.504;2023-05-10T11:08:12;4.93;;;1.77;;
13435;SDS011;6790;49.520;8.504;2023-05-10T11:13:28;3.10;;;1.60;;
13435;SDS011;6790;49.520;8.504;2023-05-10T11:15:58;2.80;;;1.80;;
13435;SDS011;6790;49.520;8.504;2023-05-10T11:18:35;1.80;;;1.47;;
13435;SDS011;6790;49.520;8.504;2023-05-10T11:21:02;4.67;;;1.60;;
13435;SDS011;6790;49.520;8.504;2023-05-10T11:26:07;3.30;;;1.40;;
13435;SDS011;6790;49.520;8.504;2023-05-10T11:28:46;2.07;;;1.60;;
13435;SDS011;6790;49.520;8.504;2023-05-10T11:31:13;4.10;;;1.67;;
13435;SDS011;6790;49.520;8.504;2023-05-10T11:33:43;1.73;;;1.40;;
13435;SDS011;6790;49.520;8.504;2023-05-10T11:36:16;2.67;;;1.40;;
13435;SDS011;6790;49.520;8.504;2023-05-10T11:38:44;1.43;;;1.30;;
13435;SDS011;6790;49.520;8.504;2023-05-10T11:41:11;1.93;;;1.20;;
13435;SDS011;6790;49.520;8.504;2023-05-10T11:43:38;2.97;;;1.60;;
13435;SDS011;6790;49.520;8.504;2023-05-10T11:46:05;4.53;;;1.53;;
13435;SDS011;6790;49.520;8.504;2023-05-10T11:48:41;3.07;;;1.53;;
13435;SDS011;6790;49.520;8.504;2023-05-10T11:51:07;2.47;;;1.40;;
13435;SDS011;6790;49.520;8.504;2023-05-10T11:53:34;1.53;;;1.33;;
13435;SDS011;6790;49.520;8.504;2023-05-10T11:56:10;1.90;;;1.23;;
13435;SDS011;6790;49.520;8.504;2023-05-10T11:58:37;3.30;;;1.47;;
13435;SDS011;6790;49.520;8.504;2023-05-10T12:01:04;1.90;;;1.40;;
13435;SDS011;6790;49.520;8.504;2023-05-10T12:03:32;1.87;;;1.30;;
13435;SDS011;6790;49.520;8.504;2023-05-10T12:05:58;2.20;;;1.47;;
13435;SDS011;6790;49.520;8.504;2023-05-10T12:08:26;3.83;;;1.50;;
13435;SDS011;6790;49.520;8.504;2023-05-10T12:11:03;3.37;;;1.50;;
13435;SDS011;6790;49.520;8.504;2023-05-10T12:13:38;2.13;;;1.57;;
13435;SDS011;6790;49.520;8.504;2023-05-10T12:16:18;2.90;;;2.37;;
13435;SDS011;6790;49.520;8.504;2023-05-10T12:18:55;7.63;;;3.77;;
13435;SDS011;6790;49.520;8.504;2023-05-10T12:21:23;2.30;;;2.00;;
13435;SDS011;6790;49.520;8.504;2023-05-10T12:23:50;3.43;;;2.27;;
13435;SDS011;6790;49.520;8.504;2023-05-10T12:26:21;2.77;;;1.70;;
13435;SDS011;6790;49.520;8.504;2023-05-10T12:28:47;4.40;;;1.90;;
13435;SDS011;6790;49.520;8.504;2023-05-10T12:31:13;2.63;;;1.50;;
13435;SDS011;6790;49.520;8.504;2023-05-10T12:33:40;2.60;;;1.47;;
13435;SDS011;6790;49.520;8.504;2023-05-10T12:36:08;5.23;;;1.60;;
13435;SDS011;6790;49.520;8.504;2023-05-10T12:38:36;4.60;;;1.40;;
13435;SDS011;6790;49.520;8.504;2023-05-10T12:41:16;1.80;;;1.20;;
13435;SDS011;6790;49.520;8.504;2023-05-10T12:43:43;2.80;;;1.53;;
13435;SDS011;6790;49.520;8.504;2023-05-10T12:46:11;1.20;;;1.10;;
13435;SDS011;6790;49.520;8.504;2023-05-10T12:48:40;2.13;;;1.30;;
13435;SDS011;6790;49.520;8.504;2023-05-10T12:51:10;3.67;;;1.67;;
13435;SDS011;6790;49.520;8.504;2023-05-10T12:53:41;3.57;;;1.50;;
13435;SDS011;6790;49.520;8.504;2023-05-10T12:56:07;1.65;;;1.42;;
13435;SDS011;6790;49.520;8.504;2023-05-10T12:58:33;3.03;;;1.67;;
13435;SDS011;6790;49.520;8.504;2023-05-10T13:01:00;2.35;;;1.60;;
13435;SDS011;6790;49.520;8.504;2023-05-10T13:03:26;6.07;;;1.70;;
13435;SDS011;6790;49.520;8.504;2023-05-10T13:05:51;3.42;;;1.70;;
13435;SDS011;6790;49.520;8.504;2023-05-10T13:08:17;4.00;;;1.88;;
13435;SDS011;6790;49.520;8.504;2023-05-10T13:10:43;5.20;;;2.08;;
13435;SDS011;6790;49.520;8.504;2023-05-10T13:13:08;4.55;;;1.80;;
13435;SDS011;6790;49.520;8.504;2023-05-10T13:15:34;2.13;;;1.50;;
13435;SDS011;6790;49.520;8.504;2023-05-10T13:18:00;2.80;;;1.65;;
13435;SDS011;6790;49.520;8.504;2023-05-10T13:20:26;4.95;;;1.73;;
13435;SDS011;6790;49.520;8.504;2023-05-10T13:22:52;6.05;;;1.95;;
13435;SDS011;6790;49.520;8.504;2023-05-10T13:25:17;11.75;;;7.90;;
13435;SDS011;6790;49.520;8.504;2023-05-10T13:27:44;3.92;;;1.80;;
13435;SDS011;6790;49.520;8.504;2023-05-10T13:30:10;2.08;;;1.35;;
13435;SDS011;6790;49.520;8.504;2023-05-10T13:32:36;2.78;;;1.48;;
13435;SDS011;6790;49.520;8.504;2023-05-10T13:35:03;4.72;;;1.50;;
13435;SDS011;6790;49.520;8.504;2023-05-10T13:37:30;3.30;;;1.50;;
13435;SDS011;6790;49.520;8.504;2023-05-10T13:39:56;3.45;;;1.50;;
13435;SDS011;6790;49.520;8.504;2023-05-10T13:42:22;3.20;;;1.50;;
13435;SDS011;6790;49.520;8.504;2023-05-10T13:44:49;4.38;;;1.60;;
13435;SDS011;6790;49.520;8.504;2023-05-10T13:47:15;1.70;;;1.15;;
13435;SDS011;6790;49.520;8.504;2023-05-10T13:49:41;1.67;;;1.20;;
13435;SDS011;6790;49.520;8.504;2023-05-10T13:52:07;2.05;;;1.30;;
13435;SDS011;6790;49.520;8.504;2023-05-10T13:54:34;1.40;;;1.20;;
13435;SDS011;6790;49.520;8.504;2023-05-10T13:57:01;1.67;;;1.13;;
13435;SDS011;6790;49.520;8.504;2023-05-10T13:59:28;2.45;;;1.10;;
13435;SDS011;6790;49.520;8.504;2023-05-10T14:01:53;1.73;;;1.15;;
13435;SDS011;6790;49.520;8.504;2023-05-10T14:04:19;4.80;;;1.40;;
13435;SDS011;6790;49.520;8.504;2023-05-10T14:06:45;1.83;;;1.23;;
13435;SDS011;6790;49.520;8.504;2023-05-10T14:09:11;2.20;;;1.20;;
13435;SDS011;6790;49.520;8.504;2023-05-10T14:11:36;1.20;;;1.10;;
13435;SDS011;6790;49.520;8.504;2023-05-10T14:14:06;1.55;;;1.10;;
13435;SDS011;6790;49.520;8.504;2023-05-10T14:16:33;1.20;;;1.05;;
13435;SDS011;6790;49.520;8.504;2023-05-10T14:18:59;3.47;;;1.15;;
13435;SDS011;6790;49.520;8.504;2023-05-10T14:21:24;9.80;;;3.60;;
13435;SDS011;6790;49.520;8.504;2023-05-10T14:23:50;2.25;;;1.30;;
13435;SDS011;6790;49.520;8.504;2023-05-10T14:26:16;5.38;;;2.97;;
13435;SDS011;6790;49.520;8.504;2023-05-10T14:28:41;12.18;;;7.22;;
13435;SDS011;6790;49.520;8.504;2023-05-10T14:31:07;3.97;;;1.80;;
13435;SDS011;6790;49.520;8.504;2023-05-10T14:33:33;2.35;;;1.30;;
13435;SDS011;6790;49.520;8.504;2023-05-10T14:35:58;6.50;;;1.40;;
13435;SDS011;6790;49.520;8.504;2023-05-10T14:38:24;1.08;;;0.95;;
13435;SDS011;6790;49.520;8.504;2023-05-10T14:40:51;2.08;;;1.20;;
13435;SDS011;6790;49.520;8.504;2023-05-10T14:43:17;0.80;;;0.80;;
13435;SDS011;6790;49.520;8.504;2023-05-10T14:45:43;0.87;;;0.87;;
13435;SDS011;6790;49.520;8.504;2023-05-10T14:48:09;1.50;;;0.93;;
13435;SDS011;6790;49.520;8.504;2023-05-10T14:50:40;1.10;;;0.95;;
13435;SDS011;6790;49.520;8.504;2023-05-10T14:53:06;2.78;;;1.10;;
13435;SDS011;6790;49.520;8.504;2023-05-10T14:55:31;1.00;;;0.93;;
13435;SDS011;6790;49.520;8.504;2023-05-10T14:57:57;1.95;;;1.23;;
13435;SDS011;6790;49.520;8.504;2023-05-10T15:00:23;4.18;;;1.10;;
13435;SDS011;6790;49.520;8.504;2023-05-10T15:02:49;3.10;;;0.90;;
13435;SDS011;6790;49.520;8.504;2023-05-10T15:05:14;2.88;;;1.30;;
13435;SDS011;6790;49.520;8.504;2023-05-10T15:07:40;1.48;;;1.17;;
13435;SDS011;6790;49.520;8.504;2023-05-10T15:10:08;7.90;;;5.68;;
13435;SDS011;6790;49.520;8.504;2023-05-10T15:12:35;2.15;;;1.83;;
13435;SDS011;6790;49.520;8.504;2023-05-10T15:15:01;10.57;;;5.40;;
13435;SDS011;6790;49.520;8.504;2023-05-10T15:17:27;5.93;;;4.88;;
13435;SDS011;6790;49.520;8.504;2023-05-10T15:19:52;1.70;;;1.42;;
13435;SDS011;6790;49.520;8.504;2023-05-10T15:22:18;1.63;;;1.40;;
13435;SDS011;6790;49.520;8.504;2023-05-10T15:24:44;1.52;;;1.23;;
13435;SDS011;6790;49.520;8.504;2023-05-10T15:27:09;2.65;;;2.20;;
13435;SDS011;6790;49.520;8.504;2023-05-10T15:29:35;1.40;;;1.23;;
13435;SDS011;6790;49.520;8.504;2023-05-10T15:32:01;3.13;;;1.33;;
13435;SDS011;6790;49.520;8.504;2023-05-10T15:34:27;1.83;;;1.27;;
13435;SDS011;6790;49.520;8.504;2023-05-10T15:36:53;2.45;;;1.10;;
13435;SDS011;6790;49.520;8.504;2023-05-10T15:39:19;2.90;;;1.25;;
13435;SDS011;6790;49.520;8.504;2023-05-10T15:41:44;1.23;;;1.02;;
13435;SDS011;6790;49.520;8.504;2023-05-10T15:44:10;11.95;;;6.47;;
13435;SDS011;6790;49.520;8.504;2023-05-10T15:46:36;1.95;;;1.80;;
13435;SDS011;6790;49.520;8.504;2023-05-10T15:49:02;4.40;;;1.30;;